Time;durP1;ratioP1;P1;durP2;ratioP2;P2;SDS_P1;SDS_P2;PMS_P1;PMS_P2;Temp;Humidity;BMP_temperature;BMP_pressure;BME280_temperature;BME280_humidity;BME280_pressure;Samples;Min_cycle;Max_cycle;Signal;HPM_P1;HPM_P2
2021/08/13 00:03:59;;;;;;;15.83;10.13;;;;;;;;;;10468654;28;20629;-69
2021/08/13 00:09:01;;;;;;;14.27;9.53;;;;;;;;;;10461229;28;20284;-69
2021/08/13 00:14:06;;;;;;;13.27;8.80;;;;;;;;;;10466747;28;20188;-69
2021/08/13 00:19:08;;;;;;;13.23;9.50;;;;;;;;;;10475361;28;20629;-70
2021/08/13 00:24:11;;;;;;;12.27;8.73;;;;;;;;;;10471171;28;20199;-69
2021/08/13 00:29:15;;;;;;;13.07;9.10;;;;;;;;;;10465518;28;20213;-70
2021/08/13 00:34:17;;;;;;;11.90;8.80;;;;;;;;;;10462997;28;20227;-69
2021/08/13 00:39:20;;;;;;;12.43;8.70;;;;;;;;;;10472748;28;20307;-70
2021/08/13 00:44:24;;;;;;;12.37;9.07;;;;;;;;;;10470848;28;20234;-69
2021/08/13 00:49:26;;;;;;;14.33;8.30;;;;;;;;;;10482354;28;20287;-69
2021/08/13 00:54:29;;;;;;;12.50;7.13;;;;;;;;;;10485966;28;20218;-69
2021/08/13 00:59:33;;;;;;;13.63;8.30;;;;;;;;;;10482227;28;20242;-69
2021/08/13 01:04:35;;;;;;;13.63;8.70;;;;;;;;;;10467294;28;20490;-69
2021/08/13 01:09:38;;;;;;;12.13;7.87;;;;;;;;;;10481533;28;20217;-69
2021/08/13 01:14:45;;;;;;;12.70;8.00;;;;;;;;;;10477501;28;20295;-70
2021/08/13 01:20:11;;;;;;;12.27;8.47;;;;;;;;;;10483594;28;20277;-68
2021/08/13 01:25:15;;;;;;;12.20;7.77;;;;;;;;;;10474196;28;20306;-70
2021/08/13 01:30:19;;;;;;;11.33;7.90;;;;;;;;;;10478902;28;20266;-70
2021/08/13 01:35:25;;;;;;;11.50;8.10;;;;;;;;;;10468968;28;20299;-69
2021/08/13 01:40:28;;;;;;;12.60;8.97;;;;;;;;;;10477614;28;20238;-70
2021/08/13 01:45:32;;;;;;;10.77;7.67;;;;;;;;;;10476516;28;20300;-68
2021/08/13 01:50:37;;;;;;;11.60;8.23;;;;;;;;;;10473382;28;20223;-70
2021/08/13 01:55:40;;;;;;;10.60;7.73;;;;;;;;;;10473565;28;20255;-70
2021/08/13 02:00:42;;;;;;;9.97;7.23;;;;;;;;;;10476076;28;20220;-70
2021/08/13 02:05:48;;;;;;;12.77;7.87;;;;;;;;;;10465600;28;20189;-69
2021/08/13 02:10:51;;;;;;;11.73;7.53;;;;;;;;;;10468977;28;20217;-69
2021/08/13 02:15:56;;;;;;;12.83;8.20;;;;;;;;;;10476610;28;20716;-68
2021/08/13 02:21:02;;;;;;;14.00;8.67;;;;;;;;;;10474029;28;20554;-70
2021/08/13 02:26:05;;;;;;;10.93;7.63;;;;;;;;;;10470201;28;20211;-70
2021/08/13 02:31:08;;;;;;;11.93;8.40;;;;;;;;;;10460470;28;20300;-69
2021/08/13 02:36:14;;;;;;;12.80;8.47;;;;;;;;;;10472264;28;20556;-69
2021/08/13 02:41:17;;;;;;;11.63;7.70;;;;;;;;;;10474309;28;20239;-69
2021/08/13 02:46:20;;;;;;;11.93;8.27;;;;;;;;;;10494362;28;20531;-69
2021/08/13 02:51:28;;;;;;;12.10;8.17;;;;;;;;;;10474116;28;20559;-68
2021/08/13 02:56:31;;;;;;;11.87;8.37;;;;;;;;;;10476967;28;20228;-69
2021/08/13 03:01:35;;;;;;;14.10;8.50;;;;;;;;;;10468397;28;20220;-68
2021/08/13 03:06:42;;;;;;;13.10;8.70;;;;;;;;;;10470539;28;20209;-70
2021/08/13 03:11:45;;;;;;;12.60;8.30;;;;;;;;;;10463270;28;20312;-68
2021/08/13 03:16:48;;;;;;;13.83;8.20;;;;;;;;;;10469575;28;20245;-69
2021/08/13 03:21:53;;;;;;;12.20;7.83;;;;;;;;;;10467485;28;20300;-69
2021/08/13 03:26:55;;;;;;;12.13;7.70;;;;;;;;;;10467431;28;20588;-69
2021/08/13 03:31:58;;;;;;;10.90;7.53;;;;;;;;;;10470747;28;20293;-70
2021/08/13 03:37:03;;;;;;;10.87;7.83;;;;;;;;;;10470282;28;20196;-68
2021/08/13 03:42:06;;;;;;;13.30;7.77;;;;;;;;;;10479458;28;20243;-69
2021/08/13 03:47:08;;;;;;;10.67;7.70;;;;;;;;;;10469144;28;20188;-69
2021/08/13 03:52:12;;;;;;;11.57;7.53;;;;;;;;;;10470300;28;20197;-69
2021/08/13 03:57:14;;;;;;;11.80;8.30;;;;;;;;;;10461989;28;20196;-69
2021/08/13 04:02:17;;;;;;;11.37;7.17;;;;;;;;;;10488900;28;20274;-69
2021/08/13 04:07:21;;;;;;;10.77;7.30;;;;;;;;;;10469497;28;20666;-69
2021/08/13 04:12:24;;;;;;;11.40;7.43;;;;;;;;;;10469069;28;20478;-70
2021/08/13 04:17:46;;;;;;;11.63;8.10;;;;;;;;;;10472749;28;20231;-70
2021/08/13 04:23:10;;;;;;;10.90;7.43;;;;;;;;;;10474576;28;20196;-69
2021/08/13 04:28:33;;;;;;;12.17;7.33;;;;;;;;;;10483419;28;20298;-70
2021/08/13 04:33:55;;;;;;;10.77;6.93;;;;;;;;;;10483252;28;20193;-69
2021/08/13 04:39:19;;;;;;;10.13;7.10;;;;;;;;;;10471207;28;20310;-70
2021/08/13 04:44:41;;;;;;;11.00;7.13;;;;;;;;;;10482085;28;20196;-69
2021/08/13 04:49:57;;;;;;;10.50;6.90;;;;;;;;;;10469554;28;20221;-68
2021/08/13 04:55:01;;;;;;;12.73;7.43;;;;;;;;;;10477149;28;20702;-69
2021/08/13 05:00:04;;;;;;;11.47;7.17;;;;;;;;;;10483266;28;20228;-70
2021/08/13 05:05:07;;;;;;;12.33;7.07;;;;;;;;;;10475082;28;20189;-70
2021/08/13 05:10:12;;;;;;;9.83;6.93;;;;;;;;;;10474021;28;20680;-68
2021/08/13 05:15:15;;;;;;;11.35;6.38;;;;;;;;;;10491069;28;20206;-69
2021/08/13 05:20:24;;;;;;;11.95;6.90;;;;;;;;;;10479597;28;20235;-69
2021/08/13 05:25:27;;;;;;;10.25;6.30;;;;;;;;;;10478066;28;20339;-70
2021/08/13 05:30:31;;;;;;;11.65;6.70;;;;;;;;;;10474476;28;20251;-69
2021/08/13 05:35:34;;;;;;;13.35;6.90;;;;;;;;;;10477517;28;20224;-68
2021/08/13 05:40:38;;;;;;;11.40;7.57;;;;;;;;;;10483401;28;20331;-68
2021/08/13 05:45:41;;;;;;;11.20;6.82;;;;;;;;;;10485040;28;20877;-71
2021/08/13 05:50:43;;;;;;;11.82;7.22;;;;;;;;;;10458809;28;20282;-70
2021/08/13 05:55:50;;;;;;;11.80;6.20;;;;;;;;;;10483360;28;20754;-69
2021/08/13 06:00:53;;;;;;;14.52;7.00;;;;;;;;;;10483643;28;20273;-70
2021/08/13 06:05:55;;;;;;;12.57;7.18;;;;;;;;;;10480798;28;20247;-67
2021/08/13 06:10:59;;;;;;;10.30;6.20;;;;;;;;;;10482129;28;20223;-70
2021/08/13 06:16:02;;;;;;;9.07;5.50;;;;;;;;;;10484534;28;20660;-68
2021/08/13 06:21:05;;;;;;;12.32;5.40;;;;;;;;;;10481631;28;20220;-69
2021/08/13 06:26:10;;;;;;;10.57;5.65;;;;;;;;;;10485597;28;20199;-69
2021/08/13 06:31:12;;;;;;;8.80;4.43;;;;;;;;;;10477480;28;20363;-66
2021/08/13 06:36:15;;;;;;;10.75;4.97;;;;;;;;;;10481154;28;20605;-69
2021/08/13 06:41:19;;;;;;;9.48;4.65;;;;;;;;;;10472778;28;20702;-69
2021/08/13 06:46:22;;;;;;;10.25;4.50;;;;;;;;;;10470681;28;20200;-70
2021/08/13 06:51:24;;;;;;;10.45;4.60;;;;;;;;;;10465838;28;20242;-69
2021/08/13 06:56:28;;;;;;;7.82;4.05;;;;;;;;;;10467497;28;21065;-70
2021/08/13 07:01:30;;;;;;;9.93;4.55;;;;;;;;;;10468898;28;20251;-68
2021/08/13 07:06:34;;;;;;;8.98;4.32;;;;;;;;;;10470093;28;20200;-68
2021/08/13 07:11:37;;;;;;;10.68;5.15;;;;;;;;;;10467137;28;20292;-68
2021/08/13 07:16:40;;;;;;;9.50;4.80;;;;;;;;;;10463864;28;20280;-70
2021/08/13 07:21:42;;;;;;;12.07;5.22;;;;;;;;;;10461766;28;20217;-69
2021/08/13 07:26:46;;;;;;;10.48;5.22;;;;;;;;;;10478858;28;20196;-69
2021/08/13 07:31:49;;;;;;;10.52;5.03;;;;;;;;;;10473816;28;20295;-68
2021/08/13 07:36:52;;;;;;;9.70;5.00;;;;;;;;;;10473364;28;20287;-70
2021/08/13 07:42:13;;;;;;;8.18;5.10;;;;;;;;;;10474545;28;20216;-68
2021/08/13 07:47:15;;;;;;;8.15;5.00;;;;;;;;;;10476589;28;20271;-70
2021/08/13 07:52:18;;;;;;;7.85;4.88;;;;;;;;;;10474917;28;20636;-70
2021/08/13 07:57:22;;;;;;;8.68;5.00;;;;;;;;;;10481655;28;20223;-70
2021/08/13 08:02:24;;;;;;;8.48;5.10;;;;;;;;;;10484353;28;20285;-71
2021/08/13 08:07:27;;;;;;;8.00;5.05;;;;;;;;;;10482454;28;20223;-71
2021/08/13 08:12:31;;;;;;;9.43;5.65;;;;;;;;;;10476885;28;20697;-70
2021/08/13 08:17:34;;;;;;;9.98;5.15;;;;;;;;;;10474314;28;20408;-69
2021/08/13 08:22:36;;;;;;;10.15;5.20;;;;;;;;;;10472381;28;20227;-69
2021/08/13 08:27:40;;;;;;;9.25;4.97;;;;;;;;;;10472847;28;20569;-70
2021/08/13 08:32:43;;;;;;;8.20;5.40;;;;;;;;;;10465303;28;20298;-70
2021/08/13 08:37:52;;;;;;;8.57;5.03;;;;;;;;;;10482722;28;20215;-70
2021/08/13 08:42:59;;;;;;;9.77;5.65;;;;;;;;;;10468475;28;20223;-70
2021/08/13 08:48:02;;;;;;;8.35;5.10;;;;;;;;;;10477276;28;20207;-71
2021/08/13 08:53:08;;;;;;;7.60;5.30;;;;;;;;;;10474990;28;20565;-70
2021/08/13 08:58:12;;;;;;;7.80;5.30;;;;;;;;;;10481422;28;20223;-71
2021/08/13 09:03:15;;;;;;;8.82;5.30;;;;;;;;;;10479113;28;20244;-70
2021/08/13 09:08:18;;;;;;;10.60;5.40;;;;;;;;;;10454578;28;20310;-70
2021/08/13 09:13:23;;;;;;;9.40;5.32;;;;;;;;;;10481243;28;20193;-71
2021/08/13 09:18:26;;;;;;;8.68;4.97;;;;;;;;;;10478391;28;20203;-71
2021/08/13 09:23:30;;;;;;;8.05;5.32;;;;;;;;;;10479352;28;20219;-71
2021/08/13 09:28:44;;;;;;;9.48;6.63;;;;;;;;;;10475409;28;20216;-71
2021/08/13 09:33:49;;;;;;;10.63;5.28;;;;;;;;;;10476042;28;20197;-70
2021/08/13 09:39:02;;;;;;;7.85;5.25;;;;;;;;;;10471478;28;20220;-71
2021/08/13 09:44:07;;;;;;;9.27;5.38;;;;;;;;;;10466337;28;20308;-71
2021/08/13 09:49:13;;;;;;;7.15;5.00;;;;;;;;;;10476744;28;20212;-71
2021/08/13 09:54:16;;;;;;;7.78;4.82;;;;;;;;;;10478099;28;20252;-71
2021/08/13 09:59:21;;;;;;;6.75;4.40;;;;;;;;;;10469419;28;20244;-71
2021/08/13 10:04:32;;;;;;;8.20;4.32;;;;;;;;;;10468778;28;20204;-70
2021/08/13 10:09:35;;;;;;;6.93;3.80;;;;;;;;;;10480452;28;20313;-70
2021/08/13 10:14:40;;;;;;;7.05;3.60;;;;;;;;;;10488016;28;20202;-71
2021/08/13 10:19:44;;;;;;;7.10;4.00;;;;;;;;;;10471573;28;20282;-70
2021/08/13 10:24:48;;;;;;;7.43;4.25;;;;;;;;;;10474950;28;20333;-68
2021/08/13 10:29:51;;;;;;;6.93;3.58;;;;;;;;;;10465131;28;20243;-70
2021/08/13 10:34:55;;;;;;;7.38;3.97;;;;;;;;;;10478965;28;20207;-69
2021/08/13 10:39:57;;;;;;;6.28;3.80;;;;;;;;;;10473698;28;20714;-69
2021/08/13 10:45:07;;;;;;;6.60;3.70;;;;;;;;;;10472923;28;20204;-70
2021/08/13 10:50:10;;;;;;;7.03;4.07;;;;;;;;;;10472424;28;20294;-70
2021/08/13 10:55:27;;;;;;;6.25;3.55;;;;;;;;;;10465575;28;20193;-70
2021/08/13 11:00:45;;;;;;;6.72;4.00;;;;;;;;;;10474565;28;20290;-71
2021/08/13 11:05:54;;;;;;;6.45;4.05;;;;;;;;;;10471242;28;20247;-72
2021/08/13 11:10:57;;;;;;;6.32;3.90;;;;;;;;;;10470443;28;20216;-72
2021/08/13 11:15:59;;;;;;;6.50;3.95;;;;;;;;;;10467379;28;20194;-71
2021/08/13 11:21:04;;;;;;;8.05;4.07;;;;;;;;;;10459593;28;20212;-71
2021/08/13 11:26:07;;;;;;;8.35;4.15;;;;;;;;;;10476318;28;20223;-71
2021/08/13 11:31:09;;;;;;;8.18;4.20;;;;;;;;;;10469448;28;20208;-71
2021/08/13 11:36:30;;;;;;;6.88;4.97;;;;;;;;;;10464739;28;20275;-72
2021/08/13 11:41:35;;;;;;;7.38;3.90;;;;;;;;;;10462980;28;20214;-71
2021/08/13 11:46:42;;;;;;;6.80;3.90;;;;;;;;;;10470680;28;20274;-71
2021/08/13 11:51:45;;;;;;;6.85;3.95;;;;;;;;;;10465668;28;20229;-71
2021/08/13 11:56:49;;;;;;;7.53;3.90;;;;;;;;;;10462947;28;20192;-71
2021/08/13 12:01:52;;;;;;;6.80;3.83;;;;;;;;;;10469595;28;20215;-71
2021/08/13 12:07:02;;;;;;;4.57;3.17;;;;;;;;;;10469005;28;20577;-70
2021/08/13 12:12:07;;;;;;;6.82;3.03;;;;;;;;;;10467624;28;20287;-72
2021/08/13 12:17:09;;;;;;;6.85;2.90;;;;;;;;;;10469759;28;20235;-71
2021/08/13 12:22:12;;;;;;;7.18;3.10;;;;;;;;;;10465560;28;20545;-69
2021/08/13 12:27:16;;;;;;;7.75;3.15;;;;;;;;;;10478770;28;20208;-70
2021/08/13 12:32:19;;;;;;;6.13;2.92;;;;;;;;;;10474128;28;20204;-70
2021/08/13 12:37:21;;;;;;;7.40;3.20;;;;;;;;;;10476728;28;20205;-70
2021/08/13 12:42:25;;;;;;;7.15;3.10;;;;;;;;;;10486905;28;20886;-71
2021/08/13 12:47:29;;;;;;;7.85;3.17;;;;;;;;;;10479815;28;20296;-71
2021/08/13 12:52:31;;;;;;;8.10;2.92;;;;;;;;;;10484007;28;20305;-70
2021/08/13 12:57:37;;;;;;;7.57;2.75;;;;;;;;;;10481901;28;20296;-70
2021/08/13 13:02:40;;;;;;;8.23;2.80;;;;;;;;;;10472466;28;20208;-70
2021/08/13 13:07:43;;;;;;;7.03;2.90;;;;;;;;;;10480087;28;20192;-69
2021/08/13 13:12:47;;;;;;;8.05;3.00;;;;;;;;;;10485391;28;20299;-70
2021/08/13 13:17:53;;;;;;;8.32;3.20;;;;;;;;;;10479801;28;20211;-70
2021/08/13 13:23:03;;;;;;;8.70;2.95;;;;;;;;;;10474831;28;20229;-70
2021/08/13 13:28:07;;;;;;;9.05;2.95;;;;;;;;;;10479463;28;20402;-71
2021/08/13 13:33:12;;;;;;;10.10;3.10;;;;;;;;;;10465598;28;20361;-70
2021/08/13 13:38:14;;;;;;;9.32;2.90;;;;;;;;;;10473633;28;20707;-70
2021/08/13 13:43:18;;;;;;;9.77;3.47;;;;;;;;;;10488493;28;20192;-69
2021/08/13 13:48:21;;;;;;;7.38;3.22;;;;;;;;;;10480033;28;20213;-70
2021/08/13 13:53:23;;;;;;;8.80;3.53;;;;;;;;;;10474549;28;20747;-69
2021/08/13 13:58:27;;;;;;;9.73;3.90;;;;;;;;;;10471602;28;20359;-70
2021/08/13 14:03:30;;;;;;;10.57;3.35;;;;;;;;;;10472617;28;20195;-69
2021/08/13 14:08:32;;;;;;;11.60;3.33;;;;;;;;;;10470605;28;20281;-69
2021/08/13 14:13:36;;;;;;;11.93;3.05;;;;;;;;;;10476190;28;20238;-69
2021/08/13 14:18:39;;;;;;;8.10;2.92;;;;;;;;;;10478606;28;20302;-69
2021/08/13 14:23:42;;;;;;;8.85;3.78;;;;;;;;;;10475606;28;20228;-69
2021/08/13 14:28:46;;;;;;;7.72;3.22;;;;;;;;;;10474966;28;20223;-71
2021/08/13 14:33:49;;;;;;;9.50;3.30;;;;;;;;;;10475658;28;20216;-70
2021/08/13 14:38:52;;;;;;;10.90;3.30;;;;;;;;;;10476161;28;20616;-70
2021/08/13 14:43:56;;;;;;;10.35;3.20;;;;;;;;;;10470939;28;20273;-70
2021/08/13 14:48:58;;;;;;;8.55;3.15;;;;;;;;;;10463848;28;20241;-71
2021/08/13 14:54:01;;;;;;;8.60;3.20;;;;;;;;;;10478983;28;20205;-70
2021/08/13 14:59:05;;;;;;;6.07;2.65;;;;;;;;;;10469561;28;20221;-70
2021/08/13 15:04:09;;;;;;;11.02;3.58;;;;;;;;;;10470298;28;20296;-70
2021/08/13 15:09:11;;;;;;;10.60;3.97;;;;;;;;;;10469534;28;20212;-71
2021/08/13 15:14:15;;;;;;;11.07;3.05;;;;;;;;;;10484413;28;20216;-71
2021/08/13 15:19:18;;;;;;;9.70;3.13;;;;;;;;;;10478362;28;20228;-71
2021/08/13 15:24:20;;;;;;;9.52;3.63;;;;;;;;;;10473619;28;20192;-70
2021/08/13 15:29:24;;;;;;;9.82;3.47;;;;;;;;;;10482555;28;20217;-70
2021/08/13 15:34:27;;;;;;;10.68;3.53;;;;;;;;;;10468849;28;20216;-70
2021/08/13 15:39:29;;;;;;;12.60;3.50;;;;;;;;;;10482742;28;20227;-69
2021/08/13 15:44:33;;;;;;;11.15;3.72;;;;;;;;;;10474590;28;20251;-70
2021/08/13 15:49:36;;;;;;;10.00;3.60;;;;;;;;;;10475792;28;20283;-69
2021/08/13 15:54:38;;;;;;;10.95;3.53;;;;;;;;;;10477404;28;20315;-70
2021/08/13 15:59:42;;;;;;;9.40;3.15;;;;;;;;;;10475792;28;20216;-70
2021/08/13 16:04:45;;;;;;;9.73;3.47;;;;;;;;;;10463492;28;20272;-70
2021/08/13 16:09:47;;;;;;;11.05;3.80;;;;;;;;;;10474452;28;20296;-71
2021/08/13 16:14:51;;;;;;;12.07;3.63;;;;;;;;;;10471915;28;20684;-70
2021/08/13 16:19:54;;;;;;;12.23;4.13;;;;;;;;;;10476620;28;20631;-70
2021/08/13 16:24:56;;;;;;;13.32;4.40;;;;;;;;;;10482570;28;20220;-70
2021/08/13 16:30:00;;;;;;;9.80;3.83;;;;;;;;;;10478752;28;20224;-70
2021/08/13 16:35:03;;;;;;;11.52;4.45;;;;;;;;;;10484134;28;20705;-70
2021/08/13 16:40:06;;;;;;;11.77;4.20;;;;;;;;;;10491606;28;20584;-70
2021/08/13 16:45:10;;;;;;;11.73;4.15;;;;;;;;;;10482329;28;20283;-70
2021/08/13 16:50:13;;;;;;;11.60;4.20;;;;;;;;;;10477643;28;20740;-70
2021/08/13 16:55:16;;;;;;;11.65;3.90;;;;;;;;;;10470215;28;20289;-70
2021/08/13 17:00:20;;;;;;;11.27;4.18;;;;;;;;;;10477295;28;20706;-70
2021/08/13 17:05:23;;;;;;;13.80;3.78;;;;;;;;;;10473851;28;20265;-69
2021/08/13 17:10:26;;;;;;;10.25;3.70;;;;;;;;;;10470628;28;20307;-70
2021/08/13 17:15:30;;;;;;;9.50;4.05;;;;;;;;;;10484164;28;20204;-71
2021/08/13 17:20:32;;;;;;;11.32;4.07;;;;;;;;;;10475337;28;20224;-69
2021/08/13 17:25:35;;;;;;;12.80;4.18;;;;;;;;;;10480786;28;20185;-70
2021/08/13 17:30:40;;;;;;;11.02;4.18;;;;;;;;;;10475872;28;20240;-70
2021/08/13 17:35:43;;;;;;;10.40;3.90;;;;;;;;;;10470768;28;20647;-70
2021/08/13 17:40:45;;;;;;;9.30;3.95;;;;;;;;;;10491715;28;20216;-71
2021/08/13 17:45:49;;;;;;;12.75;4.60;;;;;;;;;;10481887;28;20275;-70
2021/08/13 17:50:52;;;;;;;9.60;3.97;;;;;;;;;;10484458;28;20220;-69
2021/08/13 17:55:54;;;;;;;12.65;4.30;;;;;;;;;;10475512;28;20315;-69
2021/08/13 18:00:58;;;;;;;13.95;4.50;;;;;;;;;;10478158;28;20303;-70
2021/08/13 18:06:01;;;;;;;12.27;5.15;;;;;;;;;;10475463;28;20688;-70
2021/08/13 18:11:04;;;;;;;10.63;5.30;;;;;;;;;;10481583;28;20224;-70
2021/08/13 18:16:08;;;;;;;11.02;5.05;;;;;;;;;;10476858;28;20298;-69
2021/08/13 18:21:11;;;;;;;12.68;4.40;;;;;;;;;;10479486;28;20228;-69
2021/08/13 18:26:14;;;;;;;11.75;4.38;;;;;;;;;;10482833;28;20224;-69
2021/08/13 18:31:17;;;;;;;11.32;4.70;;;;;;;;;;10481643;28;20251;-70
2021/08/13 18:36:21;;;;;;;11.57;5.70;;;;;;;;;;10467489;28;20735;-70
2021/08/13 18:41:23;;;;;;;10.63;4.93;;;;;;;;;;10472464;28;20670;-70
2021/08/13 18:46:27;;;;;;;12.32;4.72;;;;;;;;;;10473936;28;20655;-70
2021/08/13 18:51:30;;;;;;;11.60;4.97;;;;;;;;;;10480145;28;20281;-70
2021/08/13 18:56:33;;;;;;;12.30;4.68;;;;;;;;;;10460640;28;20294;-70
2021/08/13 19:01:37;;;;;;;12.75;4.68;;;;;;;;;;10469059;28;20367;-69
2021/08/13 19:06:40;;;;;;;12.25;4.88;;;;;;;;;;10481763;28;20585;-69
2021/08/13 19:11:43;;;;;;;13.63;4.70;;;;;;;;;;10477154;28;20270;-69
2021/08/13 19:16:47;;;;;;;14.18;5.50;;;;;;;;;;10485709;28;20223;-69
2021/08/13 19:21:49;;;;;;;10.68;4.35;;;;;;;;;;10474638;28;20232;-67
2021/08/13 19:26:52;;;;;;;14.13;5.85;;;;;;;;;;10477585;28;20197;-67
2021/08/13 19:31:56;;;;;;;10.63;4.60;;;;;;;;;;10484371;28;20576;-67
2021/08/13 19:36:58;;;;;;;11.60;4.47;;;;;;;;;;10478331;28;20224;-67
2021/08/13 19:42:01;;;;;;;13.48;5.45;;;;;;;;;;10481432;28;20248;-67
2021/08/13 19:47:05;;;;;;;10.70;4.50;;;;;;;;;;10473103;28;20642;-68
2021/08/13 19:52:09;;;;;;;12.35;4.65;;;;;;;;;;10466272;28;20296;-68
2021/08/13 19:57:12;;;;;;;11.68;4.90;;;;;;;;;;10465334;28;20234;-68
2021/08/13 20:02:15;;;;;;;11.40;5.68;;;;;;;;;;10479738;28;20319;-68
2021/08/13 20:07:18;;;;;;;11.35;4.28;;;;;;;;;;10471105;28;20188;-68
2021/08/13 20:12:21;;;;;;;14.32;5.07;;;;;;;;;;10476135;28;20212;-68
2021/08/13 20:17:25;;;;;;;14.40;4.82;;;;;;;;;;10479109;28;20226;-68
2021/08/13 20:22:27;;;;;;;12.75;5.70;;;;;;;;;;10475682;28;20204;-68
2021/08/13 20:27:30;;;;;;;16.27;5.93;;;;;;;;;;10480418;28;20188;-67
2021/08/13 20:32:34;;;;;;;13.00;6.30;;;;;;;;;;10477629;28;20219;-67
2021/08/13 20:37:38;;;;;;;13.32;4.35;;;;;;;;;;10476868;28;20255;-67
2021/08/13 20:42:40;;;;;;;13.07;5.45;;;;;;;;;;10477063;28;20292;-67
2021/08/13 20:47:44;;;;;;;11.60;5.20;;;;;;;;;;10478820;28;20291;-67
2021/08/13 20:52:46;;;;;;;11.95;5.45;;;;;;;;;;10470452;28;20574;-68
2021/08/13 20:57:50;;;;;;;11.35;4.85;;;;;;;;;;10480326;28;20280;-67
2021/08/13 21:02:54;;;;;;;10.85;4.95;;;;;;;;;;10480939;28;20220;-68
2021/08/13 21:07:57;;;;;;;13.55;5.13;;;;;;;;;;10484899;28;20608;-68
2021/08/13 21:13:00;;;;;;;9.88;5.25;;;;;;;;;;10489145;28;20230;-67
2021/08/13 21:18:04;;;;;;;16.60;8.20;;;;;;;;;;10485511;28;20201;-68
2021/08/13 21:23:07;;;;;;;8.95;4.57;;;;;;;;;;10487423;28;20212;-70
2021/08/13 21:28:10;;;;;;;11.02;5.22;;;;;;;;;;10486168;28;20216;-70
2021/08/13 21:33:13;;;;;;;10.27;4.90;;;;;;;;;;10480626;28;20248;-70
2021/08/13 21:38:16;;;;;;;12.30;5.30;;;;;;;;;;10485079;28;20240;-71
2021/08/13 21:43:20;;;;;;;18.75;12.05;;;;;;;;;;10475584;28;20648;-70
2021/08/13 21:48:24;;;;;;;17.67;11.05;;;;;;;;;;10471155;28;20618;-71
2021/08/13 21:53:27;;;;;;;14.50;6.68;;;;;;;;;;10480420;28;20212;-72
2021/08/13 21:58:30;;;;;;;14.18;5.15;;;;;;;;;;10481523;28;20228;-70
2021/08/13 22:03:34;;;;;;;11.57;5.75;;;;;;;;;;10481427;28;20200;-70
2021/08/13 22:08:36;;;;;;;12.15;5.63;;;;;;;;;;10477867;28;20711;-70
2021/08/13 22:13:39;;;;;;;11.15;5.15;;;;;;;;;;10481793;28;20213;-69
2021/08/13 22:18:43;;;;;;;10.48;5.32;;;;;;;;;;10482842;28;20626;-69
2021/08/13 22:23:45;;;;;;;12.32;5.93;;;;;;;;;;10486781;28;20287;-69
2021/08/13 22:28:48;;;;;;;10.77;5.60;;;;;;;;;;10483756;28;20243;-71
2021/08/13 22:33:51;;;;;;;32.22;24.02;;;;;;;;;;10478974;28;20193;-70
2021/08/13 22:38:55;;;;;;;15.70;6.65;;;;;;;;;;10484058;28;20583;-69
2021/08/13 22:43:58;;;;;;;10.75;5.43;;;;;;;;;;10481425;28;20246;-69
2021/08/13 22:49:02;;;;;;;12.98;6.78;;;;;;;;;;10484679;28;20220;-69
2021/08/13 22:54:04;;;;;;;13.65;5.80;;;;;;;;;;10483206;28;20189;-69
2021/08/13 22:59:07;;;;;;;12.63;5.70;;;;;;;;;;10480264;28;20270;-69
2021/08/13 23:04:11;;;;;;;13.95;5.80;;;;;;;;;;10478188;28;20258;-69
2021/08/13 23:09:13;;;;;;;11.40;6.18;;;;;;;;;;10479266;28;20217;-69
2021/08/13 23:14:16;;;;;;;12.70;5.72;;;;;;;;;;10473431;28;20231;-69
2021/08/13 23:19:20;;;;;;;13.70;7.25;;;;;;;;;;10475513;28;20232;-69
2021/08/13 23:24:23;;;;;;;12.10;5.90;;;;;;;;;;10474389;28;20253;-69
2021/08/13 23:29:26;;;;;;;13.10;5.50;;;;;;;;;;10474730;28;20228;-69
2021/08/13 23:34:29;;;;;;;10.10;5.55;;;;;;;;;;10468461;28;20215;-69
2021/08/13 23:39:32;;;;;;;11.60;6.32;;;;;;;;;;10482319;28;20548;-69
2021/08/13 23:44:35;;;;;;;13.15;6.38;;;;;;;;;;10468317;28;20219;-69
2021/08/13 23:49:40;;;;;;;12.70;6.10;;;;;;;;;;10475356;28;20227;-69
2021/08/13 23:54:42;;;;;;;12.73;5.90;;;;;;;;;;10473666;28;20192;-67
2021/08/13 23:59:45;;;;;;;11.73;5.70;;;;;;;;;;10474174;28;20295;-70
